Woodstock, Tennessee
Current Conditions -  °F | °C
As of 10:50 AM on Tuesday 21 Oct 2014 (Local Time) from KNQA Reporting Station
Clear Clear  
Wind Chill: 72°   Ceiling: Unl
Heat Index: 72°   Visibility: 10mi
Dew Point: 54°   Wind: 0mph
Humidity: 53%   Direction: NA
Pressure: 30.1"   Gusts: NA
Location:  35.3343°N, 89.9316°W
Report Text: KNQA 211550Z 00000KT 10SM SKC 22/12 A3010
Loading
Personal Weather Stations






























Interactive Weather Map
Tropical Storm Tracking
New forecast layout! Learn more

10-Day Weather Forecast

Advertisements
Track Severe Weather on mobile